Time;durP1;ratioP1;P1;durP2;ratioP2;P2;SDS_P1;SDS_P2;PMS_P1;PMS_P2;Temp;Humidity;BMP_temperature;BMP_pressure;BME280_temperature;BME280_humidity;BME280_pressure;Samples;Min_cycle;Max_cycle;Signal;HPM_P1;HPM_P2
2024/01/07 00:04:20;;;;;;;;;;;2.70;99.90;;;;;;6743663;87;20132;-73
2024/01/07 00:14:20;;;;;;;;;;;2.70;99.90;;;;;;6747521;87;20106;-74
2024/01/07 00:24:21;;;;;;;;;;;2.70;99.90;;;;;;6748427;88;20542;-73
2024/01/07 00:34:21;;;;;;;;;;;2.80;99.90;;;;;;6742777;88;20058;-74
2024/01/07 00:44:21;;;;;;;;;;;2.80;99.90;;;;;;6743513;87;20050;-74
2024/01/07 00:54:22;;;;;;;;;;;2.80;99.90;;;;;;6739536;87;20536;-74
2024/01/07 01:04:22;;;;;;;;;;;2.80;99.90;;;;;;6741504;88;20062;-74
2024/01/07 01:14:23;;;;;;;;;;;2.80;99.90;;;;;;6742407;88;20911;-74
2024/01/07 01:24:23;;;;;;;;;;;2.80;99.90;;;;;;6742477;88;20064;-75
2024/01/07 01:34:24;;;;;;;;;;;2.90;99.90;;;;;;6742416;87;20593;-75
2024/01/07 01:44:27;;;;;;;;;;;2.80;99.90;;;;;;6739921;87;20074;-75
2024/01/07 01:54:27;;;;;;;;;;;2.80;99.90;;;;;;6739793;88;20530;-75
2024/01/07 02:04:28;;;;;;;;;;;2.90;99.90;;;;;;6741568;87;20102;-75
2024/01/07 02:14:28;;;;;;;;;;;2.90;99.90;;;;;;6739882;87;20455;-75
2024/01/07 02:24:30;;;;;;;;;;;2.90;99.90;;;;;;6740619;88;20233;-75
2024/01/07 02:34:30;;;;;;;;;;;2.90;99.90;;;;;;6743036;88;20461;-75
2024/01/07 02:44:31;;;;;;;;;;;2.90;99.90;;;;;;6737408;88;20103;-75
2024/01/07 02:54:31;;;;;;;;;;;2.90;99.90;;;;;;6741237;87;20049;-75
2024/01/07 03:04:32;;;;;;;;;;;2.80;99.90;;;;;;6742426;88;20196;-75
2024/01/07 03:14:33;;;;;;;;;;;2.90;99.90;;;;;;6743683;88;20050;-75
2024/01/07 03:24:33;;;;;;;;;;;2.90;99.90;;;;;;6745946;88;20584;-75
2024/01/07 03:34:34;;;;;;;;;;;2.90;99.90;;;;;;6747457;87;20128;-75
2024/01/07 03:55:37;;;;;;;;;;;2.90;99.90;;;;;;6764516;88;20078;-79
2024/01/07 04:05:37;;;;;;;;;;;2.90;99.90;;;;;;6763975;88;20089;-78
2024/01/07 04:15:38;;;;;;;;;;;2.90;99.90;;;;;;6765761;88;20056;-80
2024/01/07 04:25:40;;;;;;;;;;;2.80;99.90;;;;;;6766452;88;20224;-80
2024/01/07 04:35:41;;;;;;;;;;;2.80;99.90;;;;;;6756636;88;20103;-79
2024/01/07 04:45:41;;;;;;;;;;;2.80;99.90;;;;;;6764510;88;20058;-78
2024/01/07 04:55:41;;;;;;;;;;;2.80;99.90;;;;;;6767663;88;20065;-80
2024/01/07 05:05:42;;;;;;;;;;;2.70;99.90;;;;;;6760814;88;20076;-80
2024/01/07 05:15:42;;;;;;;;;;;2.70;99.90;;;;;;6761365;88;20624;-78
2024/01/07 05:25:43;;;;;;;;;;;2.60;99.90;;;;;;6760892;88;20062;-79
2024/01/07 05:35:44;;;;;;;;;;;2.60;99.90;;;;;;6755763;88;20563;-78
2024/01/07 05:45:44;;;;;;;;;;;2.50;99.90;;;;;;6762874;88;20082;-79
2024/01/07 05:55:44;;;;;;;;;;;2.50;99.90;;;;;;6755289;87;20053;-81
2024/01/07 06:05:45;;;;;;;;;;;2.40;99.90;;;;;;6748667;88;20163;-79
2024/01/07 06:15:45;;;;;;;;;;;2.30;99.90;;;;;;6747532;88;20054;-79
2024/01/07 06:25:46;;;;;;;;;;;2.10;99.90;;;;;;6745774;88;20049;-79
2024/01/07 06:35:46;;;;;;;;;;;2.20;99.90;;;;;;6749626;88;20146;-77
2024/01/07 06:45:47;;;;;;;;;;;2.20;99.90;;;;;;6750848;88;20786;-79
2024/01/07 06:55:47;;;;;;;;;;;2.20;99.90;;;;;;6746205;87;20599;-78
2024/01/07 07:05:47;;;;;;;;;;;2.10;99.90;;;;;;6744603;88;20089;-79
2024/01/07 07:15:48;;;;;;;;;;;2.20;99.90;;;;;;6748072;88;20698;-81
2024/01/07 07:25:48;;;;;;;;;;;2.10;99.90;;;;;;6745937;88;20075;-79
2024/01/07 07:35:49;;;;;;;;;;;2.10;99.90;;;;;;6742780;88;20585;-81
2024/01/07 07:45:49;;;;;;;;;;;2.10;99.90;;;;;;6742428;88;20050;-80
2024/01/07 07:55:50;;;;;;;;;;;2.10;99.90;;;;;;6749538;87;20104;-80
2024/01/07 08:05:51;;;;;;;;;;;2.20;99.90;;;;;;6761920;88;20082;-80
2024/01/07 08:15:51;;;;;;;;;;;2.20;99.90;;;;;;6765773;87;20529;-80
2024/01/07 08:25:51;;;;;;;;;;;2.20;99.90;;;;;;6765812;88;20062;-79
2024/01/07 08:35:52;;;;;;;;;;;2.20;99.90;;;;;;6769357;88;20054;-80
2024/01/07 08:45:52;;;;;;;;;;;2.20;99.90;;;;;;6768162;88;20046;-81
2024/01/07 08:55:53;;;;;;;;;;;2.20;99.90;;;;;;6763187;88;20077;-79
2024/01/07 09:05:53;;;;;;;;;;;2.20;99.90;;;;;;6761559;88;20069;-79
2024/01/07 09:15:54;;;;;;;;;;;2.20;99.90;;;;;;6764854;87;20127;-78
2024/01/07 09:25:54;;;;;;;;;;;2.20;99.90;;;;;;6761396;87;20155;-80
2024/01/07 09:35:54;;;;;;;;;;;2.30;99.90;;;;;;6762265;87;20045;-79
2024/01/07 09:45:56;;;;;;;;;;;2.20;99.90;;;;;;6765490;87;20057;-79
2024/01/07 09:56:15;;;;;;;;;;;2.30;99.90;;;;;;6753163;88;20110;-77
2024/01/07 10:06:20;;;;;;;;;;;2.30;99.90;;;;;;6755400;88;20062;-78
2024/01/07 10:16:20;;;;;;;;;;;2.30;99.90;;;;;;6754598;87;20101;-79
2024/01/07 10:26:21;;;;;;;;;;;2.30;99.90;;;;;;6756607;87;20088;-78
2024/01/07 10:36:21;;;;;;;;;;;2.30;99.90;;;;;;6743598;88;20068;-78
2024/01/07 10:46:22;;;;;;;;;;;2.40;99.90;;;;;;6760371;87;20073;-78
2024/01/07 10:56:24;;;;;;;;;;;2.30;99.90;;;;;;6778241;87;20047;-78
2024/01/07 11:06:31;;;;;;;;;;;2.30;99.90;;;;;;6780608;87;20080;-80
2024/01/07 11:16:42;;;;;;;;;;;2.30;99.90;;;;;;6773050;87;20070;-79
2024/01/07 11:26:42;;;;;;;;;;;2.20;99.90;;;;;;6780218;87;20066;-80
2024/01/07 11:36:42;;;;;;;;;;;2.30;99.90;;;;;;6773278;88;20018;-80
2024/01/07 11:46:43;;;;;;;;;;;2.30;99.90;;;;;;6778952;88;20113;-79
2024/01/07 11:56:44;;;;;;;;;;;2.40;99.90;;;;;;6784417;87;20091;-79
2024/01/07 12:06:44;;;;;;;;;;;2.50;99.90;;;;;;6784373;87;20022;-79
2024/01/07 12:16:45;;;;;;;;;;;2.60;99.90;;;;;;6785593;87;20046;-78
2024/01/07 12:26:47;;;;;;;;;;;2.50;99.90;;;;;;6788733;87;20143;-79
2024/01/07 12:36:48;;;;;;;;;;;2.50;99.90;;;;;;6778582;87;20162;-78
2024/01/07 12:46:51;;;;;;;;;;;2.40;99.90;;;;;;6776303;87;20045;-80
2024/01/07 12:56:52;;;;;;;;;;;2.40;99.90;;;;;;6771691;88;20070;-78
2024/01/07 13:06:52;;;;;;;;;;;2.30;99.90;;;;;;6743421;88;20462;-80
2024/01/07 13:16:53;;;;;;;;;;;2.30;99.90;;;;;;6753496;88;20066;-77
2024/01/07 13:26:53;;;;;;;;;;;2.30;99.90;;;;;;6761297;87;20065;-79
2024/01/07 13:36:54;;;;;;;;;;;2.60;99.90;;;;;;6766673;87;20100;-79
2024/01/07 13:46:54;;;;;;;;;;;2.30;99.90;;;;;;6737431;87;20057;-81
2024/01/07 13:56:55;;;;;;;;;;;2.00;99.90;;;;;;6752749;88;20104;-79
2024/01/07 14:06:56;;;;;;;;;;;1.90;99.90;;;;;;6766054;88;20568;-81
2024/01/07 14:16:57;;;;;;;;;;;1.80;99.90;;;;;;6753854;87;20101;-80
2024/01/07 14:26:57;;;;;;;;;;;1.50;99.90;;;;;;6767561;87;20053;-77
2024/01/07 14:36:58;;;;;;;;;;;1.50;99.90;;;;;;6765044;87;20057;-77
2024/01/07 14:46:58;;;;;;;;;;;1.50;99.90;;;;;;6767132;87;20156;-82
2024/01/07 14:56:59;;;;;;;;;;;1.40;99.90;;;;;;6739323;88;20190;-78
2024/01/07 15:06:59;;;;;;;;;;;1.30;99.90;;;;;;6757794;88;20071;-78
2024/01/07 15:17:00;;;;;;;;;;;1.00;99.90;;;;;;6761149;88;20038;-79
2024/01/07 15:27:00;;;;;;;;;;;0.90;99.90;;;;;;6762224;88;20168;-80
2024/01/07 15:37:01;;;;;;;;;;;0.80;99.90;;;;;;6760937;88;20485;-79
2024/01/07 15:57:46;;;;;;;;;;;0.60;99.90;;;;;;6758765;88;20053;-76
2024/01/07 16:07:46;;;;;;;;;;;0.40;99.90;;;;;;6672492;88;20139;-77
2024/01/07 16:17:47;;;;;;;;;;;0.30;99.90;;;;;;6650186;89;20087;-77
2024/01/07 16:27:48;;;;;;;;;;;0.30;99.90;;;;;;6660786;89;20614;-76
2024/01/07 16:37:49;;;;;;;;;;;0.20;99.90;;;;;;6652965;88;20077;-77
2024/01/07 16:47:51;;;;;;;;;;;0.20;99.90;;;;;;6652453;89;20163;-77
2024/01/07 16:57:51;;;;;;;;;;;0.00;99.90;;;;;;6680183;88;20508;-76
2024/01/07 17:07:52;;;;;;;;;;;0.00;99.90;;;;;;6669707;88;20164;-76
2024/01/07 17:17:52;;;;;;;;;;;-0.10;99.90;;;;;;6675679;88;20156;-75
2024/01/07 17:27:53;;;;;;;;;;;-0.20;99.90;;;;;;6681384;88;20617;-75
2024/01/07 17:37:53;;;;;;;;;;;-0.10;99.90;;;;;;6673755;88;20100;-75
2024/01/07 17:47:54;;;;;;;;;;;-0.10;99.90;;;;;;6666067;88;20069;-76
2024/01/07 17:57:54;;;;;;;;;;;-0.10;99.90;;;;;;6699243;88;20196;-76
2024/01/07 18:07:55;;;;;;;;;;;-0.10;99.90;;;;;;6667891;88;20086;-76
2024/01/07 18:17:55;;;;;;;;;;;0.00;99.90;;;;;;6662890;88;20123;-76
2024/01/07 18:27:56;;;;;;;;;;;0.00;99.90;;;;;;6669740;88;20060;-76
2024/01/07 18:37:56;;;;;;;;;;;0.00;99.90;;;;;;6664031;88;20595;-76
2024/01/07 18:47:56;;;;;;;;;;;0.00;99.90;;;;;;6683415;88;20072;-76
2024/01/07 18:57:57;;;;;;;;;;;0.10;99.90;;;;;;6665056;88;20141;-75
2024/01/07 19:07:58;;;;;;;;;;;0.10;99.90;;;;;;6668459;88;20057;-76
2024/01/07 19:17:59;;;;;;;;;;;0.10;99.90;;;;;;6672210;88;20057;-75
2024/01/07 19:27:59;;;;;;;;;;;0.10;99.90;;;;;;6683746;88;20133;-75
2024/01/07 19:38:00;;;;;;;;;;;0.20;99.90;;;;;;6695008;88;20075;-77
2024/01/07 19:48:03;;;;;;;;;;;0.20;99.90;;;;;;6706392;88;20168;-75
2024/01/07 19:58:05;;;;;;;;;;;0.30;99.90;;;;;;6672931;88;20073;-77
2024/01/07 20:08:05;;;;;;;;;;;0.20;99.90;;;;;;6673479;88;20078;-77
2024/01/07 20:18:06;;;;;;;;;;;0.20;99.90;;;;;;6674278;88;20071;-77
2024/01/07 20:28:06;;;;;;;;;;;0.30;99.90;;;;;;6669967;88;20546;-76
2024/01/07 20:38:08;;;;;;;;;;;0.30;99.90;;;;;;6676442;88;20064;-76
2024/01/07 20:48:09;;;;;;;;;;;0.30;99.90;;;;;;6677599;88;20517;-76
2024/01/07 20:58:09;;;;;;;;;;;0.20;99.90;;;;;;6685610;88;20267;-77
2024/01/07 21:08:10;;;;;;;;;;;0.10;99.90;;;;;;6671276;88;20052;-77
2024/01/07 21:18:14;;;;;;;;;;;0.10;99.90;;;;;;6675672;88;20093;-77
2024/01/07 21:28:14;;;;;;;;;;;0.10;99.90;;;;;;6682674;88;20094;-78
2024/01/07 21:38:15;;;;;;;;;;;0.00;99.90;;;;;;6677162;88;20058;-77
2024/01/07 22:08:57;;;;;;;;;;;0.20;99.90;;;;;;6756897;88;20109;-77
2024/01/07 22:18:57;;;;;;;;;;;0.20;99.90;;;;;;6762556;87;20069;-78
2024/01/07 22:28:58;;;;;;;;;;;0.00;99.90;;;;;;6769247;87;20518;-76
2024/01/07 22:38:59;;;;;;;;;;;0.00;99.90;;;;;;6757726;87;20557;-78
2024/01/07 22:48:59;;;;;;;;;;;-0.10;99.90;;;;;;6757252;87;20105;-78
2024/01/07 22:59:00;;;;;;;;;;;-0.10;99.90;;;;;;6756884;87;20098;-78
2024/01/07 23:09:00;;;;;;;;;;;-0.10;99.90;;;;;;6756372;87;20057;-78
2024/01/07 23:19:01;;;;;;;;;;;-0.10;99.90;;;;;;6762418;87;20453;-77
2024/01/07 23:29:02;;;;;;;;;;;-0.20;99.90;;;;;;6757149;87;20056;-78
2024/01/07 23:39:03;;;;;;;;;;;-0.20;99.90;;;;;;6765300;87;20065;-77
2024/01/07 23:49:04;;;;;;;;;;;-0.30;99.90;;;;;;6757284;87;20053;-78
2024/01/07 23:59:06;;;;;;;;;;;-0.30;99.90;;;;;;6751387;87;20057;-77
